Flagstaff, AZ

5:11 AM MST on February 24, 2017 (GMT -0700)
Lowell Observatory | | Change Station

Elev 7247 ft 35.20 °N, 111.67 °W | Updated 45 seconds ago

Clear
Clear
18.7 °F
Feels Like 19 °F
N
2.0
Wind Variable Wind from West
Gusts 7.0 mph

Today
High -- | Low -- °F
--% Chance of Precip.
Yesterday
High -- | Low -- °F
Precip. -- in
Pressure 29.93 in
Visibility 10.0 miles
Clouds Clear
Windchill 19 °F
Dew Point 6 °F
Humidity 57%
Rainfall 0.00 in
Snow Depth Not available.
7:02 AM 6:17 PM
Waning Crescent, 5% visible
METAR KFLG 241157Z AUTO 26006KT 10SM CLR M07/M15 A2993 RMK AO2 SLP133 T10671150 11044 21067 53006
Pressure 29.93 in
Visibility 10.0 miles
Clouds Clear
Windchill 19 °F
Dew Point 6 °F
Humidity 57%
Rainfall 0.00 in
Snow Depth Not available.
7:02 AM 6:17 PM
Waning Crescent, 5% visible
METAR KFLG 241157Z AUTO 26006KT 10SM CLR M07/M15 A2993 RMK AO2 SLP133 T10671150 11044 21067 53006

Get Your Daily Forecast Email!

Thanks for signing up!

Be on the lookout for a verification email in your inbox.

You'll start receiving the daily forecast at 8 AM.

×

10-Day Weather Forecast

Almanac

Astronomy

Feb. 24, 2017 Rise Set
Actual Time
Civil Twilight
Nautical Twilight
Astronomical Twilight
Moon
Length of Visible Light
Length of Day
Tomorrow will be .
, % of the Moon is Illuminated

Today's Extremes

State Highs State Lows

Community

WunderPhotos

Upload Photos

1,962,540 photos uploaded!

WunderBlog® & News

Nearby

Air Quality

  Air Quality AQ Index Pollutant
Not available.

Snow Depth

Station Depth Elevation

Earthquake Activity

City Distance Mag. Time & Date
Minimum magnitude displayed is 2.5.

Coastal Water Temperatures

Place Temperature

Stations

Nearby Weather Stations

Station Location Temp. Windchill Dew Point Humidity Wind Precip. Elev Updated Type
                   

Watches & Warnings

There are currently no watches in effect.